Lamont, FL (32336)

8:08 AM EST on March 04, 2015 (GMT -0500)
Chaires Elementary WeatherSTEM | Change Station
CLOSE
Current Station
Personal Weather Station
Location: Tallahassee, FL
Elevation: 89 ft
Nearby Weather Stations

Elev 89 ft 30.44 °N, 84.12 °W | Updated 11 minutes ago

Partly Cloudy
Partly Cloudy
62.3 °F
Feels Like 62.3 °F
N
0.0
Wind Variable Wind from SSE
Gusts 0.0 mph

Today
High -- | Low -- °F
--% Chance of Precip.
Yesterday
High -- | Low -- °F
Precip. -- in
6:58 AM 6:36 PM
Waxing Gibbous, 99% visible
Pressure 30.12 in
Visibility 0.1 miles
Clouds
Dew Point 62 °F
Humidity 99%
Rainfall 0.00 in
Snow Depth Not available.
UV 0.0 out of 12
Pollen 9.30 out of 12
Air Quality Not available.
Flu Activity Not available.
METAR KTLH 041253Z 12003KT 1/8SM FG VV002 17/17 A3013 RMK AO2 SLP200 T01720167 $

More Conditions Fewer Conditions

Pressure 30.12 in
Visibility 0.1 miles
Clouds
Dew Point 62 °F
Humidity 99%
Rainfall 0.00 in
Snow Depth Not available.
UV 0.0 out of 12
Pollen 9.30 out of 12
Air Quality Not available.
Flu Activity Not available.
METAR KTLH 041253Z 12003KT 1/8SM FG VV002 17/17 A3013 RMK AO2 SLP200 T01720167 $

More Conditions Fewer Conditions

10-Day Weather Forecast

Almanac

Astronomy

Mar. 04, 2015 Rise Set
Actual Time
Civil Twilight
Nautical Twilight
Astronomical Twilight
Moon
Length of Visible Light
Length of Day
Tomorrow will be .
, % of the Moon is Illuminated

Today's Extremes

State Highs State Lows

Community

WunderPhotos

Upload Photos

1,802,441 photos uploaded!

WunderBlogs® & News

Nearby

Air Quality

  Air Quality AQ Index Pollutant
Not available.

Snow Depth

Station Depth Elevation

Earthquake Activity

City Distance Mag. Time & Date
Minimum magnitude displayed is 2.5.

Coastal Water Temperatures

Place Temperature

Nearby Weather Stations